Placentia, Canada
Current Conditions -  °F | °C
As of 7:00 PM on Sunday 21 Dec 2014 (Local Time) from CYYT Reporting Station
Overcast Overcast  
Wind Chill: 17°   Ceiling: 1700
Heat Index: 25°   Visibility: 15mi
Dew Point: 21°   Wind: 7mph
Humidity: 86%   Direction: 330°NNW
Pressure: 30.26"   Gusts: NA
Location:  47.23°N, 53.97°W
Report Text: CYYT 212200Z 33006KT 15SM OVC017 M04/M06 A3026 RMK SC8 SLP254
Loading
Personal Weather Stations






























Interactive Weather Map New forecast layout! Learn more

10-Day Weather Forecast

Advertisements
Track Severe Weather on mobile